createdAt,value
2022-11-08T00:00:49.064Z,56.70
2022-11-08T00:03:17.766Z,49.25
2022-11-08T00:06:04.139Z,38.40
2022-11-08T00:08:51.039Z,34.63
2022-11-08T00:11:37.217Z,34.70
2022-11-08T00:14:05.727Z,33.90
2022-11-08T00:16:33.398Z,36.55
2022-11-08T00:19:01.938Z,36.17
2022-11-08T00:21:29.675Z,38.35
2022-11-08T00:23:58.886Z,36.67
2022-11-08T00:26:26.529Z,35.53
2022-11-08T00:28:54.738Z,36.13
2022-11-08T00:31:22.370Z,35.50
2022-11-08T00:33:50.508Z,35.38
2022-11-08T00:36:19.249Z,35.25
2022-11-08T00:38:47.423Z,37.80
2022-11-08T00:41:15.499Z,40.72
2022-11-08T00:43:43.697Z,42.63
2022-11-08T00:46:12.314Z,44.88
2022-11-08T00:48:40.457Z,44.95
2022-11-08T00:51:11.164Z,46.40
2022-11-08T00:53:40.451Z,44.10
2022-11-08T00:56:11.423Z,39.15
2022-11-08T00:58:41.731Z,37.28
2022-11-08T01:01:14.160Z,34.17
2022-11-08T01:03:42.631Z,33.27
2022-11-08T01:06:12.598Z,34.58
2022-11-08T01:08:41.536Z,38.78
2022-11-08T01:11:13.602Z,41.72
2022-11-08T01:13:42.837Z,43.38
2022-11-08T01:16:14.690Z,50.60
2022-11-08T01:18:43.906Z,53.28
2022-11-08T01:21:12.839Z,53.72
2022-11-08T01:23:41.577Z,55.10
2022-11-08T01:26:14.006Z,54.28
2022-11-08T01:28:42.783Z,50.27
2022-11-08T01:31:15.470Z,48.65
2022-11-08T01:33:49.907Z,50.60
2022-11-08T01:36:22.091Z,52.63
2022-11-08T01:38:51.020Z,53.08
2022-11-08T01:41:21.537Z,52.43
2022-11-08T01:43:52.142Z,52.85
2022-11-08T01:46:19.869Z,51.88
2022-11-08T01:49:22.230Z,50.72
2022-11-08T01:51:59.915Z,48.67
2022-11-08T01:54:37.134Z,49.80
2022-11-08T01:57:09.202Z,49.15
2022-11-08T01:59:40.629Z,49.95
2022-11-08T02:02:10.449Z,50.47
2022-11-08T02:04:40.865Z,51.42
2022-11-08T02:07:11.206Z,48.57
2022-11-08T02:09:42.113Z,49.45
2022-11-08T02:12:11.049Z,50.65
2022-11-08T02:14:38.700Z,51.15
2022-11-08T02:17:08.034Z,48.92
2022-11-08T02:19:47.976Z,50.83
2022-11-08T02:22:35.674Z,50.00
2022-11-08T02:25:03.644Z,50.75
2022-11-08T02:27:31.626Z,51.60
2022-11-08T02:29:59.436Z,49.17
2022-11-08T02:32:27.463Z,47.83
2022-11-08T02:34:59.952Z,48.78
2022-11-08T02:37:28.410Z,47.15
2022-11-08T02:39:56.007Z,49.50
2022-11-08T02:42:24.360Z,50.40
2022-11-08T02:44:52.015Z,48.67
2022-11-08T02:47:20.145Z,50.35
2022-11-08T02:49:47.908Z,47.17
2022-11-08T02:52:16.321Z,47.20
2022-11-08T02:54:43.996Z,49.05
2022-11-08T02:57:12.179Z,49.50
2022-11-08T02:59:39.850Z,49.95
2022-11-08T03:02:08.442Z,47.58
2022-11-08T03:04:36.201Z,48.13
2022-11-08T03:07:04.547Z,47.70
2022-11-08T03:09:32.136Z,48.00
2022-11-08T03:12:00.307Z,48.67
2022-11-08T03:14:27.912Z,50.03
2022-11-08T03:16:56.047Z,47.75
2022-11-08T03:19:23.727Z,45.42
2022-11-08T03:21:51.885Z,46.47
2022-11-08T03:24:19.493Z,48.42
2022-11-08T03:26:47.781Z,48.15
2022-11-08T03:29:15.406Z,48.60
2022-11-08T03:31:43.578Z,60.50
2022-11-08T03:34:11.308Z,106.07
2022-11-08T03:36:39.497Z,78.63
2022-11-08T03:39:07.104Z,52.28
2022-11-08T03:41:35.372Z,46.90
2022-11-08T03:44:03.136Z,45.55
2022-11-08T03:46:31.316Z,46.10
2022-11-08T03:48:59.057Z,47.78
2022-11-08T03:51:27.452Z,48.53
2022-11-08T03:53:55.115Z,48.03
2022-11-08T03:56:23.360Z,46.47
2022-11-08T03:58:51.133Z,44.57
2022-11-08T04:01:19.427Z,44.45
2022-11-08T04:03:47.188Z,43.78
2022-11-08T04:06:15.331Z,46.15
2022-11-08T04:08:42.984Z,42.60
2022-11-08T04:11:29.392Z,43.23
2022-11-08T04:14:15.549Z,44.60
2022-11-08T04:16:44.593Z,43.00
2022-11-08T04:19:30.600Z,41.45
2022-11-08T04:21:59.109Z,44.15
2022-11-08T04:24:27.333Z,44.57
2022-11-08T04:26:55.515Z,45.97
2022-11-08T04:29:23.202Z,44.28
2022-11-08T04:31:51.329Z,42.30
2022-11-08T04:34:18.940Z,43.35
2022-11-08T04:36:47.500Z,42.80
2022-11-08T04:39:15.132Z,43.83
2022-11-08T04:41:43.288Z,42.22
2022-11-08T04:44:12.083Z,42.42
2022-11-08T04:46:40.293Z,43.58
2022-11-08T04:49:08.893Z,40.73
2022-11-08T04:51:37.066Z,43.08
2022-11-08T04:54:06.545Z,41.97
2022-11-08T04:56:36.018Z,43.88
2022-11-08T04:59:08.355Z,48.35
2022-11-08T05:01:41.275Z,46.13
2022-11-08T05:04:09.245Z,47.13
2022-11-08T05:06:37.408Z,47.05
2022-11-08T05:09:05.088Z,47.28
2022-11-08T05:11:33.370Z,45.70
2022-11-08T05:14:01.059Z,43.63
2022-11-08T05:16:32.397Z,44.63
2022-11-08T05:19:01.185Z,43.17
2022-11-08T05:21:47.781Z,44.50
2022-11-08T05:24:17.187Z,44.53
2022-11-08T05:26:47.414Z,47.67
2022-11-08T05:29:16.246Z,44.65
2022-11-08T05:31:45.945Z,47.10
2022-11-08T05:34:13.766Z,47.25
2022-11-08T05:36:41.748Z,45.38
2022-11-08T05:39:09.669Z,46.57
2022-11-08T05:41:37.674Z,47.47
2022-11-08T05:44:06.443Z,48.80
2022-11-08T05:46:34.610Z,47.13
2022-11-08T05:49:02.530Z,47.65
2022-11-08T05:51:32.497Z,51.83
2022-11-08T05:54:00.412Z,53.83
2022-11-08T05:56:28.483Z,54.50
2022-11-08T05:58:56.242Z,55.85
2022-11-08T06:01:24.407Z,59.72
2022-11-08T06:03:52.411Z,57.50
2022-11-08T06:06:21.980Z,55.92
2022-11-08T06:08:51.580Z,56.70
2022-11-08T06:11:26.668Z,69.13
2022-11-08T06:13:56.087Z,59.95
2022-11-08T06:16:25.124Z,63.00
2022-11-08T06:18:53.564Z,58.05
2022-11-08T06:21:23.110Z,55.72
2022-11-08T06:23:54.975Z,56.90
2022-11-08T06:26:25.121Z,57.58
2022-11-08T06:28:54.414Z,54.23
2022-11-08T06:31:23.030Z,51.33
2022-11-08T06:33:51.703Z,48.25
2022-11-08T06:36:21.734Z,48.72
2022-11-08T06:38:56.404Z,48.60
2022-11-08T06:41:31.029Z,47.83
2022-11-08T06:44:00.508Z,47.80
2022-11-08T06:46:29.247Z,46.22
2022-11-08T06:48:56.978Z,46.95
2022-11-08T06:51:25.424Z,44.97
2022-11-08T06:53:53.098Z,43.80
2022-11-08T06:56:21.222Z,47.38
2022-11-08T06:58:49.014Z,43.95
2022-11-08T07:01:17.166Z,45.35
2022-11-08T07:03:45.203Z,41.83
2022-11-08T07:06:13.413Z,41.10
2022-11-08T07:08:41.085Z,41.80
2022-11-08T07:11:10.338Z,43.40
2022-11-08T07:13:38.234Z,42.28
2022-11-08T07:16:06.732Z,39.97
2022-11-08T07:18:34.419Z,40.63
2022-11-08T07:21:03.305Z,40.85
2022-11-08T07:23:31.501Z,37.28
2022-11-08T07:26:04.458Z,35.13
2022-11-08T07:28:32.608Z,36.20
2022-11-08T07:31:03.624Z,33.07
2022-11-08T07:33:32.021Z,32.13
2022-11-08T07:36:00.745Z,31.45
2022-11-08T07:38:28.690Z,32.00
2022-11-08T07:41:01.599Z,28.80
2022-11-08T07:43:30.554Z,29.80
2022-11-08T07:46:10.066Z,27.67
2022-11-08T07:48:39.426Z,26.92
2022-11-08T07:51:07.540Z,26.63
2022-11-08T07:53:35.555Z,26.33
2022-11-08T07:56:03.792Z,30.73
2022-11-08T07:58:31.806Z,26.80
2022-11-08T08:01:04.148Z,25.08
2022-11-08T08:03:32.464Z,26.08
2022-11-08T08:06:01.477Z,24.33
2022-11-08T08:08:30.795Z,24.93
2022-11-08T08:11:00.783Z,26.73
2022-11-08T08:13:29.370Z,24.15
2022-11-08T08:15:59.957Z,24.90
2022-11-08T08:18:31.775Z,28.85
2022-11-08T08:21:00.114Z,26.33
2022-11-08T08:23:28.078Z,21.38
2022-11-08T08:25:56.604Z,18.40
2022-11-08T08:28:24.701Z,20.38
2022-11-08T08:30:52.895Z,15.73
2022-11-08T08:33:29.453Z,18.33
2022-11-08T08:36:01.380Z,14.63
2022-11-08T08:38:30.872Z,16.45
2022-11-08T08:40:59.625Z,16.70
2022-11-08T08:43:28.323Z,18.02
2022-11-08T08:46:00.826Z,19.70
2022-11-08T08:48:29.581Z,19.70
2022-11-08T08:50:58.252Z,28.75
2022-11-08T08:53:26.840Z,21.67
2022-11-08T08:55:54.969Z,22.80
2022-11-08T08:58:23.311Z,18.47
2022-11-08T09:03:39.498Z,16.95
2022-11-08T09:06:07.878Z,16.00
2022-11-08T09:08:35.847Z,18.67
2022-11-08T09:11:04.203Z,18.57
2022-11-08T09:13:32.085Z,13.35
2022-11-08T09:16:04.946Z,16.58
2022-11-08T09:18:32.976Z,23.60
2022-11-08T09:21:01.210Z,13.75
2022-11-08T09:23:29.080Z,12.73
2022-11-08T09:26:02.185Z,12.57
2022-11-08T09:28:35.095Z,13.50
2022-11-08T09:31:09.405Z,13.35
2022-11-08T09:33:38.985Z,13.32
2022-11-08T09:36:11.331Z,13.73
2022-11-08T09:38:39.248Z,14.55
2022-11-08T09:41:22.368Z,23.60
2022-11-08T09:44:01.363Z,17.98
2022-11-08T09:46:36.490Z,15.80
2022-11-08T09:49:08.898Z,17.20
2022-11-08T09:51:37.237Z,17.70
2022-11-08T09:54:17.118Z,13.98
2022-11-08T09:56:48.145Z,14.98
2022-11-08T09:59:37.757Z,14.77
2022-11-08T10:02:18.479Z,14.13
2022-11-08T10:04:58.797Z,13.00
2022-11-08T10:07:30.417Z,17.92
2022-11-08T10:10:41.717Z,16.27
2022-11-08T10:13:32.431Z,17.45
2022-11-08T10:16:29.555Z,13.70
2022-11-08T10:19:39.950Z,13.57
2022-11-08T10:22:31.368Z,26.75
2022-11-08T10:25:34.899Z,13.70
2022-11-08T10:28:08.606Z,13.35
2022-11-08T10:30:41.855Z,12.87
2022-11-08T10:33:20.208Z,13.50
2022-11-08T10:36:16.646Z,12.65
2022-11-08T10:38:51.922Z,13.75
2022-11-08T10:41:31.534Z,12.88
2022-11-08T10:44:10.287Z,13.67
2022-11-08T10:46:45.777Z,12.55
2022-11-08T10:52:42.059Z,11.30
2022-11-08T10:55:26.298Z,10.88
2022-11-08T10:57:55.236Z,11.07
2022-11-08T11:00:26.999Z,11.32
2022-11-08T11:03:02.510Z,10.43
2022-11-08T11:05:34.352Z,10.98
2022-11-08T11:08:09.305Z,11.75
2022-11-08T11:10:48.006Z,11.80
2022-11-08T11:13:19.046Z,11.13
2022-11-08T11:15:51.286Z,11.80
2022-11-08T11:18:24.486Z,12.32
2022-11-08T11:21:17.977Z,11.32
2022-11-08T11:23:58.948Z,11.73
2022-11-08T11:26:30.189Z,12.05
2022-11-08T11:29:04.649Z,11.13
2022-11-08T11:31:41.685Z,12.07
2022-11-08T11:34:21.338Z,12.57
2022-11-08T11:37:17.637Z,12.60
2022-11-08T11:39:58.965Z,12.38
2022-11-08T11:42:48.561Z,14.43
2022-11-08T11:46:18.718Z,12.15
2022-11-08T11:49:00.670Z,13.23
2022-11-08T11:51:31.026Z,14.07
2022-11-08T11:54:02.817Z,21.55
2022-11-08T11:56:49.966Z,11.68
2022-11-08T11:59:33.232Z,9.90
2022-11-08T12:02:07.647Z,11.63
2022-11-08T12:05:10.262Z,11.47
2022-11-08T12:08:11.710Z,10.77
2022-11-08T12:11:30.348Z,11.55
2022-11-08T12:14:11.942Z,10.15
2022-11-08T12:16:54.814Z,8.55
2022-11-08T12:19:29.682Z,5.50
2022-11-08T12:22:16.996Z,5.93
2022-11-08T12:25:14.066Z,5.88
2022-11-08T12:28:05.567Z,5.95
2022-11-08T12:30:43.982Z,5.80
2022-11-08T12:33:19.632Z,6.23
2022-11-08T12:36:17.274Z,6.25
2022-11-08T12:39:25.329Z,6.38
2022-11-08T12:42:12.528Z,6.38
2022-11-08T12:44:49.749Z,6.32
2022-11-08T12:47:45.789Z,6.13
2022-11-08T12:51:01.509Z,5.97
2022-11-08T12:53:59.521Z,6.18
2022-11-08T12:56:43.619Z,6.32
2022-11-08T12:59:23.635Z,5.80
2022-11-08T13:01:52.909Z,6.03
2022-11-08T13:04:51.693Z,5.22
2022-11-08T13:08:03.901Z,5.72
2022-11-08T13:10:35.169Z,6.45
2022-11-08T13:13:17.628Z,5.57
2022-11-08T13:16:09.240Z,5.70
2022-11-08T13:18:47.005Z,5.35
2022-11-08T13:21:30.582Z,6.50
2022-11-08T13:24:37.837Z,5.40
2022-11-08T13:27:38.307Z,6.60
2022-11-08T13:30:12.316Z,5.93
2022-11-08T13:32:43.520Z,6.43
2022-11-08T13:35:38.062Z,6.15
2022-11-08T13:38:43.312Z,6.55
2022-11-08T13:41:31.517Z,9.15
2022-11-08T13:43:59.956Z,7.17
2022-11-08T13:46:28.228Z,6.22
2022-11-08T13:49:02.323Z,6.68
2022-11-08T13:51:35.922Z,8.60
2022-11-08T13:54:21.826Z,9.82
2022-11-08T13:56:55.404Z,7.33
2022-11-08T13:59:33.206Z,7.53
2022-11-08T14:02:04.731Z,8.10
2022-11-08T14:04:41.169Z,8.30
2022-11-08T14:07:23.832Z,9.25
2022-11-08T14:10:14.719Z,10.00
2022-11-08T14:13:15.631Z,9.80
2022-11-08T14:15:50.671Z,12.40
2022-11-08T14:18:27.827Z,14.23
2022-11-08T14:20:56.691Z,10.80
2022-11-08T14:23:29.626Z,9.43
2022-11-08T14:26:07.786Z,9.50
2022-11-08T14:28:41.182Z,10.85
2022-11-08T14:31:28.392Z,11.13
2022-11-08T14:33:57.923Z,10.57
2022-11-08T14:36:27.096Z,10.30
2022-11-08T14:39:18.323Z,13.75
2022-11-08T14:41:48.385Z,12.23
2022-11-08T14:44:19.164Z,14.30
2022-11-08T14:46:48.056Z,14.38
2022-11-08T14:49:20.630Z,11.07
2022-11-08T14:52:07.206Z,9.23
2022-11-08T14:54:41.882Z,9.27
2022-11-08T14:57:30.871Z,10.10
2022-11-08T15:00:01.268Z,10.35
2022-11-08T15:02:29.315Z,10.30
2022-11-08T15:04:57.476Z,11.30
2022-11-08T15:07:26.246Z,11.82
2022-11-08T15:09:55.040Z,12.57
2022-11-08T15:12:25.303Z,12.68
2022-11-08T15:14:59.710Z,13.77
2022-11-08T15:17:38.677Z,12.88
2022-11-08T15:20:13.433Z,14.48
2022-11-08T15:22:44.341Z,16.45
2022-11-08T15:25:15.265Z,17.23
2022-11-08T15:28:13.284Z,17.10
2022-11-08T15:30:45.811Z,15.93
2022-11-08T15:33:41.194Z,18.75
2022-11-08T15:36:18.252Z,19.83
2022-11-08T15:38:50.173Z,23.77
2022-11-08T15:41:36.162Z,33.17
2022-11-08T15:48:24.638Z,21.85
2022-11-08T15:51:46.871Z,25.50
2022-11-08T15:54:17.728Z,23.58
2022-11-08T15:56:46.601Z,26.53
2022-11-08T15:59:21.668Z,22.33
2022-11-08T16:01:56.571Z,22.75
2022-11-08T16:04:25.207Z,21.05
2022-11-08T16:06:53.121Z,22.95
2022-11-08T16:09:21.549Z,21.23
2022-11-08T16:11:50.320Z,19.55
2022-11-08T16:14:21.193Z,16.27
2022-11-08T16:16:49.428Z,16.10
2022-11-08T16:19:23.889Z,18.10
2022-11-08T16:23:07.562Z,17.03
2022-11-08T16:25:48.125Z,15.95
2022-11-08T16:28:38.427Z,18.27
2022-11-08T16:31:15.467Z,17.17
2022-11-08T16:33:45.173Z,18.23
2022-11-08T16:36:24.459Z,17.37
2022-11-08T16:38:56.835Z,16.30
2022-11-08T16:41:26.576Z,16.95
2022-11-08T16:43:54.378Z,23.95
2022-11-08T16:46:23.977Z,25.20
2022-11-08T16:48:59.815Z,17.80
2022-11-08T16:51:29.460Z,16.23
2022-11-08T16:54:04.871Z,17.10
2022-11-08T16:56:33.912Z,15.50
2022-11-08T16:59:01.587Z,18.42
2022-11-08T17:01:33.728Z,21.87
2022-11-08T17:04:01.827Z,19.85
2022-11-08T17:06:29.934Z,16.85
2022-11-08T17:08:58.543Z,32.67
2022-11-08T17:11:26.648Z,35.67
2022-11-08T17:13:55.485Z,17.47
2022-11-08T17:16:23.542Z,17.80
2022-11-08T17:18:53.005Z,16.80
2022-11-08T17:24:10.103Z,15.32
2022-11-08T17:26:38.159Z,25.43
2022-11-08T17:29:08.320Z,21.60
2022-11-08T17:31:36.595Z,20.35
2022-11-08T17:34:04.395Z,24.15
2022-11-08T17:36:32.498Z,25.35
2022-11-08T17:39:00.420Z,29.20
2022-11-08T17:41:30.361Z,22.73
2022-11-08T17:43:59.963Z,19.33
2022-11-08T17:46:28.678Z,18.52
2022-11-08T17:48:56.983Z,17.77
2022-11-08T17:51:25.013Z,18.20
2022-11-08T17:53:53.384Z,19.45
2022-11-08T17:56:21.727Z,19.17
2022-11-08T17:58:50.289Z,21.50
2022-11-08T18:01:19.516Z,20.25
2022-11-08T18:03:49.229Z,48.97
2022-11-08T18:06:17.758Z,55.90
2022-11-08T18:08:45.480Z,30.73
2022-11-08T18:11:13.930Z,23.90
2022-11-08T18:13:42.022Z,22.02
2022-11-08T18:16:13.024Z,28.17
2022-11-08T18:18:41.523Z,23.77
2022-11-08T18:21:10.033Z,22.85
2022-11-08T18:23:41.420Z,20.90
2022-11-08T18:26:10.517Z,19.67
2022-11-08T18:28:39.731Z,27.53
2022-11-08T18:31:16.284Z,27.33
2022-11-08T18:33:44.817Z,45.85
2022-11-08T18:36:24.810Z,42.53
2022-11-08T18:38:53.089Z,34.50
2022-11-08T18:41:30.115Z,32.30
2022-11-08T18:43:59.619Z,34.15
2022-11-08T18:46:29.755Z,29.20
2022-11-08T18:48:57.504Z,32.88
2022-11-08T18:51:25.670Z,27.95
2022-11-08T18:53:53.951Z,29.23
2022-11-08T18:56:22.547Z,35.88
2022-11-08T18:58:52.284Z,36.05
2022-11-08T19:01:21.369Z,36.20
2022-11-08T19:03:49.134Z,32.25
2022-11-08T19:06:17.580Z,30.67
2022-11-08T19:08:45.327Z,25.83
2022-11-08T19:11:14.741Z,21.00
2022-11-08T19:13:42.732Z,20.70
2022-11-08T19:16:16.964Z,19.85
2022-11-08T19:18:45.987Z,19.10
2022-11-08T19:21:22.625Z,17.90
2022-11-08T19:23:51.649Z,17.30
2022-11-08T19:26:23.006Z,16.92
2022-11-08T19:28:54.384Z,15.32
2022-11-08T19:31:24.627Z,16.13
2022-11-08T19:33:54.755Z,16.73
2022-11-08T19:36:27.623Z,17.88
2022-11-08T19:38:57.310Z,16.17
2022-11-08T19:41:27.955Z,16.70
2022-11-08T19:43:55.938Z,15.80
2022-11-08T19:46:27.110Z,15.73
2022-11-08T19:48:55.518Z,12.80
2022-11-08T19:51:26.377Z,12.32
2022-11-08T19:54:06.981Z,13.60
2022-11-08T19:57:04.098Z,12.87
2022-11-08T19:59:25.097Z,12.70
2022-11-08T20:01:53.477Z,14.75
2022-11-08T20:04:21.284Z,13.65
2022-11-08T20:06:49.475Z,11.75
2022-11-08T20:09:17.830Z,12.37
2022-11-08T20:11:45.755Z,11.70
2022-11-08T20:14:17.780Z,10.57
2022-11-08T20:16:52.149Z,14.02
2022-11-08T20:19:22.097Z,14.88
2022-11-08T20:21:51.372Z,14.03
2022-11-08T20:24:19.853Z,13.73
2022-11-08T20:26:49.627Z,14.40
2022-11-08T20:29:18.972Z,14.73
2022-11-08T20:31:46.760Z,13.55
2022-11-08T20:34:14.973Z,12.33
2022-11-08T20:36:44.399Z,11.95
2022-11-08T20:39:15.010Z,10.80
2022-11-08T20:41:43.292Z,13.35
2022-11-08T20:44:12.971Z,14.27
2022-11-08T20:46:46.540Z,14.87
2022-11-08T20:49:15.486Z,14.35
2022-11-08T20:51:46.487Z,11.45
2022-11-08T20:54:17.267Z,11.65
2022-11-08T20:56:45.337Z,12.45
2022-11-08T20:59:15.215Z,14.00
2022-11-08T21:01:43.367Z,14.27
2022-11-08T21:04:11.783Z,14.32
2022-11-08T21:06:39.972Z,15.00
2022-11-08T21:09:32.746Z,12.50
2022-11-08T21:11:57.707Z,11.80
2022-11-08T21:14:25.935Z,13.77
2022-11-08T21:19:42.356Z,14.77
2022-11-08T21:22:15.857Z,15.23
2022-11-08T21:24:45.675Z,14.33
2022-11-08T21:27:14.158Z,14.45
2022-11-08T21:29:42.262Z,13.23
2022-11-08T21:32:10.141Z,12.77
2022-11-08T21:34:39.183Z,14.00
2022-11-08T21:37:10.331Z,17.23
2022-11-08T21:39:38.533Z,30.77
2022-11-08T21:42:07.710Z,30.05
2022-11-08T21:44:35.967Z,30.70
2022-11-08T21:47:03.943Z,32.47
2022-11-08T21:49:32.021Z,33.73
2022-11-08T21:51:59.932Z,32.67
2022-11-08T21:54:28.093Z,28.10
2022-11-08T21:56:55.691Z,26.63
2022-11-08T21:59:23.905Z,21.33
2022-11-08T22:01:51.525Z,20.73
2022-11-08T22:04:19.683Z,20.90
2022-11-08T22:06:47.976Z,21.45
2022-11-08T22:09:16.333Z,20.83
2022-11-08T22:11:44.072Z,20.55
2022-11-08T22:14:12.387Z,20.20
2022-11-08T22:16:40.547Z,20.60
2022-11-08T22:19:09.416Z,19.70
2022-11-08T22:21:41.376Z,19.10
2022-11-08T22:24:12.700Z,19.33
2022-11-08T22:26:41.674Z,18.17
2022-11-08T22:29:09.875Z,21.08
2022-11-08T22:31:38.607Z,21.73
2022-11-08T22:34:08.731Z,21.58
2022-11-08T22:36:43.968Z,21.77
2022-11-08T22:39:14.497Z,18.27
2022-11-08T22:41:43.778Z,17.95
2022-11-08T22:44:12.856Z,17.80
2022-11-08T22:46:42.727Z,17.60
2022-11-08T22:49:11.534Z,20.10
2022-11-08T22:51:39.985Z,21.57
2022-11-08T22:54:08.248Z,21.65
2022-11-08T22:56:37.069Z,21.58
2022-11-08T22:59:05.358Z,22.90
2022-11-08T23:01:34.187Z,20.52
2022-11-08T23:04:02.428Z,21.97
2022-11-08T23:06:30.662Z,21.02
2022-11-08T23:08:59.587Z,20.33
2022-11-08T23:11:46.261Z,20.90
2022-11-08T23:14:37.179Z,20.77
2022-11-08T23:17:08.089Z,20.73
2022-11-08T23:19:54.764Z,22.48
2022-11-08T23:22:41.552Z,22.25
2022-11-08T23:25:09.713Z,23.10
2022-11-08T23:27:56.059Z,21.20
2022-11-08T23:30:42.287Z,21.10
2022-11-08T23:33:10.690Z,21.90
2022-11-08T23:35:38.316Z,21.73
2022-11-08T23:38:06.514Z,21.08
2022-11-08T23:40:52.848Z,20.13
2022-11-08T23:43:39.425Z,20.00
2022-11-08T23:46:10.327Z,19.83
2022-11-08T23:48:40.201Z,20.55
2022-11-08T23:51:08.348Z,20.42
2022-11-08T23:53:37.705Z,18.95
2022-11-08T23:56:06.046Z,19.80
2022-11-08T23:58:34.525Z,19.55
